createdAt,value
2018-05-02T00:02:26.257Z,98424.42
2018-05-02T00:04:53.856Z,98423.98
2018-05-02T00:07:21.531Z,98428.03
2018-05-02T00:09:49.281Z,98422.56
2018-05-02T00:12:16.883Z,98424.94
2018-05-02T00:14:44.547Z,98412.31
2018-05-02T00:17:12.279Z,98408.73
2018-05-02T00:19:40.444Z,98412.62
2018-05-02T00:22:08.037Z,98406.09
2018-05-02T00:24:35.948Z,98402.25
2018-05-02T00:27:03.624Z,98406.88
2018-05-02T00:29:31.255Z,98406.36
2018-05-02T00:31:58.934Z,98417.30
2018-05-02T00:34:26.521Z,98428.64
2018-05-02T00:36:54.176Z,98431.50
2018-05-02T00:39:21.832Z,98435.25
2018-05-02T00:41:49.411Z,98435.73
2018-05-02T00:44:17.000Z,98435.73
2018-05-02T00:46:44.623Z,98432.34
2018-05-02T00:49:17.064Z,98437.23
2018-05-02T00:51:44.860Z,98435.10
2018-05-02T00:54:12.525Z,98442.25
2018-05-02T00:56:40.183Z,98442.44
2018-05-02T00:59:07.928Z,98438.31
2018-05-02T01:01:35.573Z,98451.28
2018-05-02T01:04:03.295Z,98455.59
2018-05-02T01:06:31.075Z,98445.21
2018-05-02T01:08:58.724Z,98449.34
2018-05-02T01:11:27.292Z,98446.80
2018-05-02T01:13:54.957Z,98445.03
2018-05-02T01:16:22.618Z,98440.82
2018-05-02T01:18:50.277Z,98432.60
2018-05-02T01:21:18.028Z,98438.11
2018-05-02T01:23:45.610Z,98432.90
2018-05-02T01:26:13.311Z,98430.45
2018-05-02T01:28:41.098Z,98431.27
2018-05-02T01:31:08.684Z,98431.44
2018-05-02T01:33:36.283Z,98436.50
2018-05-02T01:36:03.951Z,98439.75
2018-05-02T01:38:31.528Z,98438.19
2018-05-02T01:40:59.192Z,98434.56
2018-05-02T01:43:26.988Z,98435.62
2018-05-02T01:45:54.577Z,98429.20
2018-05-02T01:48:22.210Z,98442.49
2018-05-02T01:50:50.008Z,98444.30
2018-05-02T01:53:17.676Z,98434.65
2018-05-02T01:55:45.336Z,98435.78
2018-05-02T01:58:13.000Z,98444.10
2018-05-02T02:00:40.576Z,98440.85
2018-05-02T02:03:08.171Z,98437.09
2018-05-02T02:05:35.909Z,98443.30
2018-05-02T02:08:03.511Z,98439.83
2018-05-02T02:10:31.101Z,98438.61
2018-05-02T02:12:58.773Z,98444.22
2018-05-02T02:15:26.480Z,98433.83
2018-05-02T02:17:54.135Z,98427.25
2018-05-02T02:20:21.897Z,98437.63
2018-05-02T02:22:49.576Z,98434.51
2018-05-02T02:25:17.167Z,98431.69
2018-05-02T02:27:44.964Z,98432.07
2018-05-02T02:30:12.608Z,98432.48
2018-05-02T02:32:40.198Z,98437.42
2018-05-02T02:35:07.829Z,98447.51
2018-05-02T02:37:35.584Z,98455.44
2018-05-02T02:40:03.200Z,98453.92
2018-05-02T02:42:30.985Z,98450.80
2018-05-02T02:44:58.564Z,98448.65
2018-05-02T02:47:26.158Z,98456.49
2018-05-02T02:49:54.812Z,98448.44
2018-05-02T02:52:22.445Z,98456.67
2018-05-02T02:54:50.068Z,98458.23
2018-05-02T02:57:17.788Z,98455.73
2018-05-02T02:59:45.384Z,98454.05
2018-05-02T03:02:13.024Z,98459.91
2018-05-02T03:04:40.659Z,98453.07
2018-05-02T03:07:08.314Z,98449.66
2018-05-02T03:09:36.046Z,98452.31
2018-05-02T03:12:03.895Z,98447.88
2018-05-02T03:14:31.699Z,98453.66
2018-05-02T03:16:59.286Z,98454.09
2018-05-02T03:19:27.072Z,98451.56
2018-05-02T03:21:54.644Z,98451.14
2018-05-02T03:24:22.286Z,98451.44
2018-05-02T03:26:50.022Z,98458.73
2018-05-02T03:29:18.338Z,98455.10
2018-05-02T03:31:45.978Z,98456.92
2018-05-02T03:34:13.608Z,98461.06
2018-05-02T03:36:41.249Z,98451.86
2018-05-02T03:39:08.932Z,98455.91
2018-05-02T03:41:36.712Z,98462.20
2018-05-02T03:44:04.992Z,98459.75
2018-05-02T03:46:32.674Z,98470.27
2018-05-02T03:49:00.323Z,98468.41
2018-05-02T03:51:27.896Z,98468.99
2018-05-02T03:53:56.348Z,98473.77
2018-05-02T03:56:24.033Z,98483.00
2018-05-02T03:58:51.663Z,98481.73
2018-05-02T04:01:30.976Z,98484.44
2018-05-02T04:04:10.385Z,98490.13
2018-05-02T04:07:15.451Z,98494.61
2018-05-02T04:09:43.114Z,98495.95
2018-05-02T04:12:10.788Z,98494.25
2018-05-02T04:14:39.189Z,98500.45
2018-05-02T04:17:06.797Z,98505.76
2018-05-02T04:19:34.384Z,98513.77
2018-05-02T04:22:02.103Z,98507.51
2018-05-02T04:24:29.696Z,98515.05
2018-05-02T04:26:57.297Z,98519.96
2018-05-02T04:29:25.298Z,98521.02
2018-05-02T04:31:52.961Z,98525.88
2018-05-02T04:34:20.601Z,98525.88
2018-05-02T04:36:48.295Z,98530.55
2018-05-02T04:39:15.931Z,98536.86
2018-05-02T04:41:43.539Z,98540.14
2018-05-02T04:44:11.188Z,98538.31
2018-05-02T04:46:38.795Z,98542.73
2018-05-02T04:49:06.480Z,98542.76
2018-05-02T04:51:34.147Z,98543.54
2018-05-02T04:54:01.785Z,98545.07
2018-05-02T04:56:31.091Z,98548.65
2018-05-02T04:58:58.711Z,98555.63
2018-05-02T05:01:26.321Z,98554.09
2018-05-02T05:03:54.742Z,98558.52
2018-05-02T05:06:22.489Z,98547.50
2018-05-02T05:08:50.069Z,98555.56
2018-05-02T05:11:17.677Z,98556.31
2018-05-02T05:13:45.411Z,98554.20
2018-05-02T05:16:13.058Z,98554.67
2018-05-02T05:18:40.685Z,98557.11
2018-05-02T05:21:08.314Z,98563.02
2018-05-02T05:23:35.892Z,98569.33
2018-05-02T05:26:03.496Z,98569.23
2018-05-02T05:28:31.281Z,98574.73
2018-05-02T05:30:59.148Z,98567.70
2018-05-02T05:33:31.370Z,98561.95
2018-05-02T05:35:59.482Z,98561.47
2018-05-02T05:38:27.131Z,98571.88
2018-05-02T05:40:54.793Z,98581.20
2018-05-02T05:43:22.562Z,98588.01
2018-05-02T05:45:50.202Z,98587.22
2018-05-02T05:48:17.777Z,98582.38
2018-05-02T05:50:45.409Z,98589.72
2018-05-02T05:53:12.987Z,98587.55
2018-05-02T05:55:40.571Z,98590.66
2018-05-02T05:58:08.323Z,98587.58
2018-05-02T06:00:35.935Z,98589.08
2018-05-02T06:03:03.551Z,98590.55
2018-05-02T06:05:31.256Z,98588.80
2018-05-02T06:07:58.861Z,98589.10
2018-05-02T06:10:26.512Z,98595.08
2018-05-02T06:12:54.311Z,98591.70
2018-05-02T06:15:21.920Z,98594.30
2018-05-02T06:17:50.509Z,98596.81
2018-05-02T06:20:18.137Z,98596.77
2018-05-02T06:22:45.790Z,98597.98
2018-05-02T06:25:13.472Z,98596.56
2018-05-02T06:27:41.216Z,98597.02
2018-05-02T06:30:08.831Z,98593.48
2018-05-02T06:32:36.616Z,98589.30
2018-05-02T06:35:04.324Z,98589.28
2018-05-02T06:37:32.536Z,98581.69
2018-05-02T06:40:00.357Z,98593.16
2018-05-02T06:42:28.101Z,98585.70
2018-05-02T06:44:55.722Z,98595.18
2018-05-02T06:47:23.800Z,98591.27
2018-05-02T06:49:51.448Z,98597.92
2018-05-02T06:52:19.073Z,98592.86
2018-05-02T06:54:46.761Z,98589.38
2018-05-02T06:57:14.431Z,98589.98
2018-05-02T06:59:42.025Z,98591.34
2018-05-02T07:02:09.618Z,98597.69
2018-05-02T07:04:37.356Z,98589.73
2018-05-02T07:07:05.024Z,98586.15
2018-05-02T07:09:32.617Z,98588.57
2018-05-02T07:12:00.333Z,98591.60
2018-05-02T07:14:27.929Z,98596.70
2018-05-02T07:16:55.595Z,98589.39
2018-05-02T07:19:23.245Z,98592.03
2018-05-02T07:21:50.895Z,98591.52
2018-05-02T07:24:18.493Z,98594.41
2018-05-02T07:26:46.192Z,98593.69
2018-05-02T07:29:13.776Z,98591.59
2018-05-02T07:31:43.014Z,98594.44
2018-05-02T07:34:10.820Z,98592.31
2018-05-02T07:36:38.429Z,98588.31
2018-05-02T07:39:06.100Z,98585.77
2018-05-02T07:41:34.654Z,98584.91
2018-05-02T07:44:02.268Z,98588.27
2018-05-02T07:46:29.862Z,98585.11
2018-05-02T07:49:10.758Z,98581.59
2018-05-02T07:51:38.665Z,98579.91
2018-05-02T07:54:06.367Z,98581.19
2018-05-02T07:56:34.005Z,98581.02
2018-05-02T07:59:01.585Z,98577.77
2018-05-02T08:01:29.325Z,98583.09
2018-05-02T08:03:56.952Z,98579.98
2018-05-02T08:06:24.536Z,98577.42
2018-05-02T08:08:52.250Z,98573.23
2018-05-02T08:11:19.901Z,98566.23
2018-05-02T08:13:47.492Z,98572.58
2018-05-02T08:16:15.145Z,98569.89
2018-05-02T08:18:42.802Z,98565.74
2018-05-02T08:21:10.409Z,98569.95
2018-05-02T08:23:38.150Z,98562.43
2018-05-02T08:26:05.762Z,98563.40
2018-05-02T08:28:33.345Z,98567.94
2018-05-02T08:31:01.080Z,98563.00
2018-05-02T08:33:28.669Z,98566.15
2018-05-02T08:35:56.353Z,98562.90
2018-05-02T08:38:24.073Z,98565.89
2018-05-02T08:40:51.700Z,98560.59
2018-05-02T08:43:19.293Z,98560.42
2018-05-02T08:45:46.945Z,98553.91
2018-05-02T08:48:15.304Z,98558.61
2018-05-02T08:50:42.948Z,98553.28
2018-05-02T08:53:10.660Z,98558.67
2018-05-02T08:55:38.325Z,98562.72
2018-05-02T08:58:05.956Z,98560.87
2018-05-02T09:00:33.697Z,98554.31
2018-05-02T09:03:01.275Z,98545.25
2018-05-02T09:05:28.875Z,98545.88
2018-05-02T09:07:57.259Z,98550.21
2018-05-02T09:10:24.898Z,98548.65
2018-05-02T09:12:52.497Z,98549.47
2018-05-02T09:15:20.157Z,98549.52
2018-05-02T09:17:47.746Z,98552.63
2018-05-02T09:20:15.351Z,98542.63
2018-05-02T09:22:43.061Z,98548.16
2018-05-02T09:25:10.724Z,98542.25
2018-05-02T09:27:38.320Z,98537.63
2018-05-02T09:30:05.985Z,98538.05
2018-05-02T09:32:33.564Z,98542.64
2018-05-02T09:35:01.168Z,98539.14
2018-05-02T09:37:28.867Z,98533.51
2018-05-02T09:39:56.532Z,98537.13
2018-05-02T09:42:24.108Z,98527.34
2018-05-02T09:44:51.919Z,98530.26
2018-05-02T09:47:19.487Z,98529.57
2018-05-02T09:49:47.141Z,98516.17
2018-05-02T09:52:14.803Z,98517.55
2018-05-02T09:54:42.389Z,98517.30
2018-05-02T09:57:09.979Z,98514.74
2018-05-02T09:59:37.766Z,98520.02
2018-05-02T10:02:05.391Z,98522.44
2018-05-02T10:04:33.059Z,98515.48
2018-05-02T10:07:00.820Z,98514.12
2018-05-02T10:09:28.469Z,98513.25
2018-05-02T10:11:56.144Z,98505.27
2018-05-02T10:14:23.795Z,98509.45
2018-05-02T10:16:51.446Z,98505.42
2018-05-02T10:19:19.058Z,98506.59
2018-05-02T10:21:46.725Z,98511.37
2018-05-02T10:24:14.309Z,98508.23
2018-05-02T10:26:41.885Z,98507.72
2018-05-02T10:29:09.664Z,98511.22
2018-05-02T10:31:37.316Z,98503.61
2018-05-02T10:34:04.998Z,98498.44
2018-05-02T10:36:32.672Z,98490.66
2018-05-02T10:39:00.924Z,98479.23
2018-05-02T10:41:28.512Z,98487.62
2018-05-02T10:43:56.212Z,98487.03
2018-05-02T10:46:23.823Z,98484.00
2018-05-02T10:48:51.467Z,98486.64
2018-05-02T10:51:19.132Z,98490.56
2018-05-02T10:53:46.788Z,98491.45
2018-05-02T10:56:14.385Z,98491.05
2018-05-02T10:58:42.108Z,98483.86
2018-05-02T11:01:09.697Z,98477.75
2018-05-02T11:03:37.283Z,98478.55
2018-05-02T11:06:05.072Z,98481.53
2018-05-02T11:08:32.775Z,98478.16
2018-05-02T11:11:00.367Z,98478.93
2018-05-02T11:13:28.028Z,98472.16
2018-05-02T11:15:55.727Z,98465.67
2018-05-02T11:18:23.323Z,98469.67
2018-05-02T11:20:50.985Z,98462.88
2018-05-02T11:23:18.603Z,98456.30
2018-05-02T11:25:46.193Z,98455.25
2018-05-02T11:28:14.846Z,98451.44
2018-05-02T11:30:42.444Z,98448.53
2018-05-02T11:33:10.034Z,98442.73
2018-05-02T11:35:37.766Z,98442.59
2018-05-02T11:38:05.359Z,98433.61
2018-05-02T11:40:33.179Z,98430.02
2018-05-02T11:43:00.775Z,98427.39
2018-05-02T11:45:28.412Z,98423.13
2018-05-02T11:47:56.024Z,98417.16
2018-05-02T11:50:24.349Z,98418.41
2018-05-02T11:52:51.952Z,98417.12
2018-05-02T11:55:19.545Z,98415.96
2018-05-02T11:57:47.264Z,98403.59
2018-05-02T12:00:14.895Z,98403.59
2018-05-02T12:02:42.614Z,98403.28
2018-05-02T12:05:10.275Z,98395.70
2018-05-02T12:07:37.905Z,98398.61
2018-05-02T12:10:05.574Z,98395.50
2018-05-02T12:12:33.273Z,98386.94
2018-05-02T12:15:00.880Z,98378.42
2018-05-02T12:17:28.473Z,98377.29
2018-05-02T12:19:56.144Z,98373.38
2018-05-02T12:22:23.723Z,98364.69
2018-05-02T12:24:51.377Z,98370.99
2018-05-02T12:27:19.013Z,98368.44
2018-05-02T12:29:46.677Z,98362.03
2018-05-02T12:32:14.255Z,98356.66
2018-05-02T12:34:41.939Z,98350.39
2018-05-02T12:37:09.531Z,98347.48
2018-05-02T12:39:37.133Z,98340.02
2018-05-02T12:42:05.008Z,98334.45
2018-05-02T12:44:32.668Z,98341.20
2018-05-02T12:47:00.832Z,98332.70
2018-05-02T12:49:28.500Z,98324.32
2018-05-02T12:51:56.166Z,98329.51
2018-05-02T12:54:23.739Z,98318.55
2018-05-02T12:56:51.373Z,98316.30
2018-05-02T12:59:19.020Z,98317.00
2018-05-02T13:01:46.596Z,98311.38
2018-05-02T13:04:14.507Z,98312.08
2018-05-02T13:06:42.164Z,98300.50
2018-05-02T13:09:09.773Z,98306.44
2018-05-02T13:11:37.384Z,98298.56
2018-05-02T13:14:04.981Z,98303.52
2018-05-02T13:16:32.567Z,98299.13
2018-05-02T13:19:00.187Z,98292.20
2018-05-02T13:21:27.850Z,98289.19
2018-05-02T13:23:55.654Z,98292.77
2018-05-02T13:26:23.280Z,98281.45
2018-05-02T13:28:50.935Z,98286.95
2018-05-02T13:31:18.571Z,98287.78
2018-05-02T13:33:46.280Z,98272.60
2018-05-02T13:36:13.925Z,98280.08
2018-05-02T13:38:41.510Z,98282.81
2018-05-02T13:41:09.212Z,98281.19
2018-05-02T13:43:37.023Z,98285.45
2018-05-02T13:46:04.685Z,98274.13
2018-05-02T13:48:32.611Z,98268.89
2018-05-02T13:51:00.265Z,98269.56
2018-05-02T13:53:27.844Z,98264.53
2018-05-02T13:55:55.650Z,98257.92
2018-05-02T13:58:23.231Z,98255.17
2018-05-02T14:00:50.849Z,98249.25
2018-05-02T14:03:18.607Z,98246.92
2018-05-02T14:05:46.694Z,98246.36
2018-05-02T14:08:14.444Z,98247.73
2018-05-02T14:10:41.977Z,98236.13
2018-05-02T14:13:10.192Z,98240.14
2018-05-02T14:15:37.786Z,98230.06
2018-05-02T14:18:05.480Z,98232.42
2018-05-02T14:20:33.081Z,98232.70
2018-05-02T14:23:00.680Z,98230.34
2018-05-02T14:25:28.343Z,98233.09
2018-05-02T14:27:55.941Z,98233.78
2018-05-02T14:30:23.532Z,98229.09
2018-05-02T14:32:51.405Z,98228.14
2018-05-02T14:35:19.033Z,98228.38
2018-05-02T14:37:47.454Z,98234.47
2018-05-02T14:40:15.136Z,98227.56
2018-05-02T14:42:42.755Z,98225.49
2018-05-02T14:45:10.480Z,98229.73
2018-05-02T14:47:38.125Z,98222.03
2018-05-02T14:50:05.750Z,98214.46
2018-05-02T14:52:33.339Z,98216.09
2018-05-02T14:55:01.053Z,98226.14
2018-05-02T14:57:28.705Z,98217.28
2018-05-02T14:59:56.302Z,98214.29
2018-05-02T15:02:24.094Z,98213.27
2018-05-02T15:04:51.675Z,98206.67
2018-05-02T15:07:19.286Z,98207.38
2018-05-02T15:09:46.933Z,98206.52
2018-05-02T15:12:15.400Z,98205.97
2018-05-02T15:14:43.047Z,98207.06
2018-05-02T15:17:10.680Z,98202.77
2018-05-02T15:19:38.363Z,98202.93
2018-05-02T15:22:06.097Z,98208.44
2018-05-02T15:24:33.762Z,98209.53
2018-05-02T15:27:01.371Z,98203.16
2018-05-02T15:29:29.770Z,98204.50
2018-05-02T15:31:57.400Z,98203.25
2018-05-02T15:34:25.048Z,98210.13
2018-05-02T15:36:52.688Z,98207.25
2018-05-02T15:39:20.411Z,98210.84
2018-05-02T15:41:48.052Z,98208.88
2018-05-02T15:44:15.642Z,98205.84
2018-05-02T15:46:43.677Z,98207.63
2018-05-02T15:49:11.421Z,98207.72
2018-05-02T15:51:39.031Z,98201.80
2018-05-02T15:54:06.825Z,98202.30
2018-05-02T15:56:34.477Z,98203.48
2018-05-02T15:59:02.132Z,98206.06
2018-05-02T16:01:29.768Z,98212.36
2018-05-02T16:03:57.433Z,98214.23
2018-05-02T16:06:24.969Z,98206.38
2018-05-02T16:08:52.611Z,98213.52
2018-05-02T16:11:20.201Z,98218.30
2018-05-02T16:13:47.792Z,98222.42
2018-05-02T16:16:15.426Z,98218.97
2018-05-02T16:18:43.020Z,98221.00
2018-05-02T16:21:10.600Z,98229.36
2018-05-02T16:23:38.271Z,98227.93
2018-05-02T16:26:05.905Z,98229.96
2018-05-02T16:28:33.526Z,98240.91
2018-05-02T16:31:01.152Z,98245.88
2018-05-02T16:33:28.744Z,98252.02
2018-05-02T16:35:56.327Z,98251.31
2018-05-02T16:38:24.006Z,98251.42
2018-05-02T16:40:52.442Z,98254.45
2018-05-02T16:43:20.085Z,98250.78
2018-05-02T16:45:47.906Z,98258.84
2018-05-02T16:48:15.719Z,98260.98
2018-05-02T16:50:43.323Z,98264.66
2018-05-02T16:53:11.108Z,98274.52
2018-05-02T16:55:38.797Z,98265.55
2018-05-02T16:58:06.397Z,98268.30
2018-05-02T17:00:34.929Z,98269.67
2018-05-02T17:03:02.513Z,98274.41
2018-05-02T17:05:30.097Z,98275.85
2018-05-02T17:07:57.816Z,98281.72
2018-05-02T17:10:25.402Z,98280.50
2018-05-02T17:12:52.992Z,98284.72
2018-05-02T17:15:20.700Z,98282.81
2018-05-02T17:17:49.183Z,98284.02
2018-05-02T17:20:16.832Z,98293.48
2018-05-02T17:22:44.514Z,98288.01
2018-05-02T17:25:12.103Z,98292.52
2018-05-02T17:27:39.684Z,98286.41
2018-05-02T17:30:07.457Z,98293.73
2018-05-02T17:32:35.069Z,98296.55
2018-05-02T17:35:02.661Z,98292.28
2018-05-02T17:37:30.312Z,98289.17
2018-05-02T17:39:57.902Z,98290.00
2018-05-02T17:42:25.590Z,98289.55
2018-05-02T17:44:53.311Z,98287.27
2018-05-02T17:47:20.901Z,98288.84
2018-05-02T17:49:48.600Z,98293.41
2018-05-02T17:52:16.289Z,98292.17
2018-05-02T17:54:43.893Z,98297.81
2018-05-02T17:57:11.494Z,98297.70
2018-05-02T17:59:39.131Z,98299.80
2018-05-02T18:02:06.751Z,98300.67
2018-05-02T18:04:34.393Z,98303.27
2018-05-02T18:07:02.978Z,98310.73
2018-05-02T18:09:30.587Z,98301.33
2018-05-02T18:11:58.189Z,98298.03
2018-05-02T18:14:25.855Z,98306.84
2018-05-02T18:16:53.462Z,98310.95
2018-05-02T18:19:21.057Z,98310.80
2018-05-02T18:21:48.703Z,98309.77
2018-05-02T18:24:16.287Z,98310.56
2018-05-02T18:26:43.877Z,98314.17
2018-05-02T18:29:11.520Z,98313.06
2018-05-02T18:31:39.108Z,98315.20
2018-05-02T18:34:06.746Z,98308.61
2018-05-02T18:36:34.509Z,98311.42
2018-05-02T18:39:02.927Z,98315.41
2018-05-02T18:41:30.584Z,98315.63
2018-05-02T18:43:58.316Z,98323.00
2018-05-02T18:46:25.946Z,98332.34
2018-05-02T18:48:53.565Z,98341.88
2018-05-02T18:51:22.034Z,98341.63
2018-05-02T18:53:49.639Z,98349.27
2018-05-02T18:56:17.297Z,98350.66
2018-05-02T18:58:44.970Z,98346.20
2018-05-02T19:01:12.633Z,98343.89
2018-05-02T19:03:40.259Z,98343.84
2018-05-02T19:06:07.941Z,98343.42
2018-05-02T19:08:35.552Z,98347.33
2018-05-02T19:11:03.160Z,98342.65
2018-05-02T19:13:30.972Z,98335.98
2018-05-02T19:15:58.560Z,98343.36
2018-05-02T19:18:31.637Z,98344.06
2018-05-02T19:20:59.231Z,98347.41
2018-05-02T19:23:26.808Z,98352.52
2018-05-02T19:26:00.204Z,98355.57
2018-05-02T19:28:27.792Z,98362.27
2018-05-02T19:31:01.069Z,98365.87
2018-05-02T19:33:34.201Z,98364.87
2018-05-02T19:36:01.947Z,98364.20
2018-05-02T19:38:29.555Z,98366.10
2018-05-02T19:41:02.679Z,98373.12
2018-05-02T19:43:35.946Z,98368.83
2018-05-02T19:46:03.703Z,98380.65
2018-05-02T19:48:31.361Z,98383.23
2018-05-02T19:51:04.493Z,98386.19
2018-05-02T19:53:32.316Z,98387.09
2018-05-02T19:55:59.913Z,98387.36
2018-05-02T19:58:27.629Z,98381.41
2018-05-02T20:01:00.825Z,98386.47
2018-05-02T20:03:28.511Z,98392.36
2018-05-02T20:05:56.197Z,98390.41
2018-05-02T20:08:29.467Z,98382.86
2018-05-02T20:11:02.655Z,98378.34
2018-05-02T20:13:36.103Z,98367.03
2018-05-02T20:16:03.692Z,98361.73
2018-05-02T20:18:31.304Z,98365.31
2018-05-02T20:20:58.971Z,98371.55
2018-05-02T20:23:26.572Z,98375.16
2018-05-02T20:25:54.825Z,98373.80
2018-05-02T20:28:22.628Z,98367.59
2018-05-02T20:30:50.241Z,98371.73
2018-05-02T20:33:17.824Z,98368.38
2018-05-02T20:35:45.578Z,98372.48
2018-05-02T20:38:13.312Z,98374.81
2018-05-02T20:40:40.982Z,98378.16
2018-05-02T20:43:08.771Z,98384.86
2018-05-02T20:45:36.415Z,98378.03
2018-05-02T20:48:04.040Z,98373.92
2018-05-02T20:50:31.691Z,98373.96
2018-05-02T20:52:59.356Z,98371.59
2018-05-02T20:55:27.160Z,98366.91
2018-05-02T20:57:54.987Z,98371.04
2018-05-02T21:00:22.645Z,98370.52
2018-05-02T21:02:50.270Z,98369.19
2018-05-02T21:05:18.005Z,98360.70
2018-05-02T21:07:45.653Z,98365.24
2018-05-02T21:10:13.297Z,98370.17
2018-05-02T21:12:41.096Z,98371.05
2018-05-02T21:15:08.712Z,98369.92
2018-05-02T21:17:36.368Z,98364.19
2018-05-02T21:20:04.235Z,98350.63
2018-05-02T21:22:31.841Z,98354.36
2018-05-02T21:24:59.450Z,98343.36
2018-05-02T21:27:27.115Z,98345.88
2018-05-02T21:29:54.725Z,98341.48
2018-05-02T21:32:22.347Z,98339.17
2018-05-02T21:34:50.006Z,98349.33
2018-05-02T21:37:17.627Z,98355.52
2018-05-02T21:39:45.220Z,98362.43
2018-05-02T21:42:12.917Z,98368.22
2018-05-02T21:44:40.563Z,98373.80
2018-05-02T21:47:08.164Z,98373.55
2018-05-02T21:49:35.973Z,98372.87
2018-05-02T21:52:03.651Z,98366.81
2018-05-02T21:54:31.236Z,98362.89
2018-05-02T21:56:59.068Z,98361.39
2018-05-02T21:59:26.723Z,98360.11
2018-05-02T22:01:54.384Z,98362.87
2018-05-02T22:04:22.207Z,98369.09
2018-05-02T22:06:49.872Z,98367.86
2018-05-02T22:09:17.467Z,98368.91
2018-05-02T22:11:45.846Z,98358.94
2018-05-02T22:14:13.495Z,98365.62
2018-05-02T22:16:41.099Z,98362.30
2018-05-02T22:19:08.760Z,98367.45
2018-05-02T22:21:36.344Z,98362.53
2018-05-02T22:24:04.000Z,98366.66
2018-05-02T22:26:31.649Z,98358.95
2018-05-02T22:28:59.240Z,98350.59
2018-05-02T22:31:26.835Z,98353.20
2018-05-02T22:33:54.579Z,98349.87
2018-05-02T22:36:22.172Z,98352.16
2018-05-02T22:38:49.780Z,98339.20
2018-05-02T22:41:17.507Z,98344.02
2018-05-02T22:43:45.099Z,98331.99
2018-05-02T22:46:12.756Z,98333.59
2018-05-02T22:48:40.482Z,98331.92
2018-05-02T22:51:08.127Z,98333.06
2018-05-02T22:53:35.716Z,98329.94
2018-05-02T22:56:03.386Z,98329.63
2018-05-02T22:58:31.091Z,98332.98
2018-05-02T23:00:58.835Z,98325.56
2018-05-02T23:03:26.481Z,98330.15
2018-05-02T23:05:54.076Z,98328.38
2018-05-02T23:08:21.722Z,98333.06
2018-05-02T23:10:49.389Z,98328.16
2018-05-02T23:13:17.035Z,98328.62
2018-05-02T23:15:44.630Z,98328.22
2018-05-02T23:18:12.357Z,98330.69
2018-05-02T23:20:40.001Z,98330.59
2018-05-02T23:23:07.655Z,98325.25
2018-05-02T23:25:35.440Z,98324.28
2018-05-02T23:28:03.088Z,98328.98
2018-05-02T23:30:31.060Z,98325.85
2018-05-02T23:32:58.803Z,98323.23
2018-05-02T23:35:26.413Z,98328.84
2018-05-02T23:37:54.013Z,98328.50
2018-05-02T23:40:21.666Z,98332.91
2018-05-02T23:42:49.247Z,98336.55
2018-05-02T23:45:16.885Z,98331.53
2018-05-02T23:47:44.513Z,98331.00
2018-05-02T23:50:12.132Z,98336.84
2018-05-02T23:52:40.363Z,98341.44
2018-05-02T23:55:08.549Z,98336.26
2018-05-02T23:57:36.154Z,98336.38
